Time;durP1;ratioP1;P1;durP2;ratioP2;P2;SDS_P1;SDS_P2;PMS_P1;PMS_P2;Temp;Humidity;BMP_temperature;BMP_pressure;BME280_temperature;BME280_humidity;BME280_pressure;Samples;Min_cycle;Max_cycle;Signal;HPM_P1;HPM_P2
2021/10/28 00:13:58;;;;;;;15.27;13.47;;;;;;;3.59;86.25;100340.34;5081364;22;20228;-78
2021/10/28 00:16:56;;;;;;;15.23;13.00;;;;;;;3.55;85.96;100336.34;5129324;22;20237;-80
2021/10/28 00:19:38;;;;;;;14.80;13.30;;;;;;;3.58;86.00;100343.16;5094578;22;20210;31
2021/10/28 00:22:12;;;;;;;16.13;13.47;;;;;;;3.53;86.05;100340.97;5041873;22;20254;-79
2021/10/28 00:24:56;;;;;;;15.33;13.03;;;;;;;3.45;85.75;100335.63;5159104;22;20220;-78
2021/10/28 00:27:29;;;;;;;15.50;13.10;;;;;;;3.47;86.28;100339.78;5097142;22;20225;-79
2021/10/28 00:29:59;;;;;;;14.70;13.20;;;;;;;3.39;86.34;100323.84;5107228;22;20233;-79
2021/10/28 00:32:43;;;;;;;15.50;13.13;;;;;;;3.18;86.39;100296.06;5083890;22;20201;-78
2021/10/28 00:35:25;;;;;;;14.13;12.63;;;;;;;3.35;86.20;100330.44;5089660;22;20230;-79
2021/10/28 00:38:15;;;;;;;15.33;13.07;;;;;;;3.30;86.51;100323.94;5075417;22;20297;-79
2021/10/28 00:40:54;;;;;;;16.53;14.10;;;;;;;3.31;86.01;100323.78;5067406;22;20210;-79
2021/10/28 00:43:55;;;;;;;15.10;13.30;;;;;;;3.28;86.46;100323.25;5082182;22;20235;-78
2021/10/28 00:46:48;;;;;;;15.67;13.43;;;;;;;3.27;86.52;100330.38;5091110;22;20223;-79
2021/10/28 00:49:26;;;;;;;16.83;13.20;;;;;;;3.28;86.40;100324.09;5074146;28;20284;-79
2021/10/28 00:52:13;;;;;;;15.10;13.40;;;;;;;3.21;86.26;100314.28;5250625;22;20240;-77
2021/10/28 00:55:09;;;;;;;19.70;13.27;;;;;;;3.25;86.47;100328.88;5137783;23;20225;-79
2021/10/28 00:57:46;;;;;;;18.27;13.37;;;;;;;2.96;86.27;100284.16;5108997;22;20238;-77
2021/10/28 01:00:50;;;;;;;14.60;13.03;;;;;;;3.10;86.46;100312.72;5081515;22;20746;-77
2021/10/28 01:03:59;;;;;;;15.93;12.97;;;;;;;3.10;86.30;100328.63;5088079;22;20232;-79
2021/10/28 01:06:50;;;;;;;16.33;13.33;;;;;;;3.09;86.31;100332.25;5100688;22;20271;-79
2021/10/28 01:09:46;;;;;;;14.57;12.63;;;;;;;3.04;86.28;100330.06;5077595;22;20302;-77
2021/10/28 01:12:17;;;;;;;14.73;12.87;;;;;;;3.03;86.37;100319.63;5075756;28;20221;-77
2021/10/28 01:15:14;;;;;;;14.97;12.90;;;;;;;3.01;86.82;100321.59;5078179;28;20188;-78
2021/10/28 01:18:29;;;;;;;13.77;12.20;;;;;;;2.88;86.64;100297.34;5058356;23;20228;-79
2021/10/28 01:24:21;;;;;;;13.93;11.70;;;;;;;2.91;86.39;100307.63;5030852;28;20288;-79
2021/10/28 01:27:33;;;;;;;15.80;11.60;;;;;;;2.90;86.36;100309.44;5056820;23;20257;-78
2021/10/28 01:30:18;;;;;;;15.00;12.20;;;;;;;2.89;86.33;100307.75;5066904;23;20206;-78
2021/10/28 01:33:06;;;;;;;15.73;11.60;;;;;;;2.83;86.40;100303.09;5046655;22;20209;-78
2021/10/28 01:35:36;;;;;;;13.10;11.23;;;;;;;2.80;86.31;100308.69;5060063;28;20217;-79
2021/10/28 01:38:11;;;;;;;14.03;12.13;;;;;;;2.80;86.59;100308.69;5061874;23;20257;-79
2021/10/28 01:41:10;;;;;;;14.23;11.63;;;;;;;2.79;86.21;100299.13;5027186;28;20214;-79
2021/10/28 01:44:01;;;;;;;13.70;11.80;;;;;;;2.78;86.32;100312.47;5137610;23;20240;31
2021/10/28 01:47:08;;;;;;;12.97;11.53;;;;;;;2.69;86.04;100300.16;5036836;23;20231;-79
2021/10/28 01:49:40;;;;;;;12.63;11.33;;;;;;;2.58;86.29;100295.94;5076864;22;20215;-78
2021/10/28 01:52:18;;;;;;;13.17;11.87;;;;;;;2.65;86.61;100305.78;5016600;28;20199;-79
2021/10/28 01:55:13;;;;;;;12.60;11.17;;;;;;;2.56;86.19;100296.13;5119237;23;20230;-79
2021/10/28 01:58:14;;;;;;;12.37;11.07;;;;;;;2.52;86.68;100296.56;5062697;23;20241;-78
2021/10/28 02:01:28;;;;;;;12.97;11.40;;;;;;;2.45;86.69;100298.13;5045357;23;20202;-80
2021/10/28 02:04:35;;;;;;;16.40;13.13;;;;;;;2.45;86.72;100298.13;5128126;23;20239;-79
2021/10/28 02:07:37;;;;;;;22.20;18.13;;;;;;;2.39;86.40;100299.56;5015544;23;20226;-78
2021/10/28 02:10:11;;;;;;;23.17;17.70;;;;;;;2.36;86.76;100301.69;5076170;23;20598;-78
2021/10/28 02:13:58;;;;;;;20.40;16.20;;;;;;;2.40;87.07;100305.69;5038733;28;20245;-78
2021/10/28 02:16:44;;;;;;;18.20;14.10;;;;;;;2.40;86.46;100306.53;5051768;23;20215;-80
2021/10/28 02:19:51;;;;;;;16.47;13.87;;;;;;;2.26;86.86;100291.19;5047939;23;20249;-78
2021/10/28 02:22:42;;;;;;;16.67;13.43;;;;;;;2.33;86.45;100296.72;5034365;23;20231;-78
2021/10/28 02:26:06;;;;;;;12.17;10.87;;;;;;;2.28;87.19;100302.47;5053040;22;20235;-77
2021/10/28 02:29:33;;;;;;;12.93;11.53;;;;;;;2.24;86.67;100289.69;5051587;23;20231;-79
2021/10/28 02:32:16;;;;;;;12.33;10.83;;;;;;;2.24;86.99;100295.78;4997516;28;20279;-78
2021/10/28 02:41:42;;;;;;;12.67;11.17;;;;;;;2.07;86.89;100300.06;5024076;23;20219;-78
2021/10/28 02:44:50;;;;;;;12.23;11.03;;;;;;;1.80;86.46;100267.56;5042530;22;20227;-77
2021/10/28 02:47:47;;;;;;;12.37;11.17;;;;;;;2.01;86.26;100292.72;5058999;23;20249;31
2021/10/28 02:50:51;;;;;;;12.33;11.03;;;;;;;1.91;87.06;100281.41;4995540;28;20283;-79
2021/10/28 02:53:27;;;;;;;12.13;10.80;;;;;;;1.88;86.85;100294.91;5102700;23;20215;-78
2021/10/28 02:56:26;;;;;;;12.73;11.07;;;;;;;1.88;86.54;100286.16;5037342;28;20287;-78
2021/10/28 02:59:03;;;;;;;13.80;11.33;;;;;;;1.89;87.12;100293.94;5062136;23;20245;-78
2021/10/28 03:02:08;;;;;;;14.90;11.43;;;;;;;1.85;87.27;100286.44;5056533;23;20537;-79
2021/10/28 03:04:55;;;;;;;12.43;11.07;;;;;;;1.74;87.19;100277.75;4994948;28;20247;-78
2021/10/28 03:07:55;;;;;;;13.73;11.20;;;;;;;1.76;87.10;100291.66;5033329;23;20237;-79
2021/10/28 03:11:08;;;;;;;13.50;11.50;;;;;;;1.78;86.53;100289.66;5042501;23;20298;-78
2021/10/28 03:14:04;;;;;;;13.57;11.17;;;;;;;1.61;86.88;100256.13;5046170;22;20233;-78
2021/10/28 03:26:37;;;;;;;14.33;12.70;;;;;;;1.72;86.80;100274.44;5065358;22;20221;-77
2021/10/28 03:29:49;;;;;;;17.33;14.10;;;;;;;1.84;86.63;100282.13;5074662;22;20257;-78
2021/10/28 03:32:51;;;;;;;15.30;13.67;;;;;;;1.87;87.18;100293.22;5029361;23;20253;-78
2021/10/28 03:35:35;;;;;;;17.37;14.17;;;;;;;1.89;87.33;100293.94;5035213;23;20237;-77
2021/10/28 03:39:29;;;;;;;16.33;12.93;;;;;;;1.91;87.02;100293.78;4984870;28;20191;-79
2021/10/28 04:16:29;;;;;;;20.23;13.27;;;;;;;2.02;87.72;100301.50;5076906;23;20576;-79
2021/10/28 04:32:04;;;;;;;18.50;14.87;;;;;;;2.16;88.91;100304.47;5129317;22;20250;-78
2021/10/28 04:34:44;;;;;;;19.57;16.17;;;;;;;1.97;89.19;100272.03;5104855;22;20204;-78
2021/10/28 04:38:12;;;;;;;21.73;17.50;;;;;;;2.17;88.94;100284.16;5193459;23;20232;-80
2021/10/28 04:41:18;;;;;;;23.70;18.73;;;;;;;2.20;88.58;100287.31;5094938;22;20280;-81
2021/10/28 04:44:22;;;;;;;22.13;18.53;;;;;;;2.32;89.33;100293.25;5084256;28;20214;-80
2021/10/28 04:47:21;;;;;;;76.23;21.03;;;;;;;2.35;89.45;100302.66;5102076;28;20157;-80
2021/10/28 04:49:55;;;;;;;49.50;20.23;;;;;;;2.25;89.42;100278.94;5098055;23;20223;-80
2021/10/28 04:52:38;;;;;;;29.10;20.37;;;;;;;2.35;89.53;100286.81;5091946;23;20296;-81
2021/10/28 04:55:11;;;;;;;26.13;19.03;;;;;;;2.47;89.48;100293.53;5075065;22;20237;-80
2021/10/28 04:58:04;;;;;;;28.30;19.37;;;;;;;2.50;89.54;100296.72;5088939;23;20251;-80
2021/10/28 05:01:07;;;;;;;29.37;19.20;;;;;;;2.56;89.46;100297.91;5102624;23;20237;31
2021/10/28 05:04:14;;;;;;;30.03;19.57;;;;;;;2.48;89.53;100292.53;5017513;23;20209;-81
2021/10/28 05:07:23;;;;;;;30.00;19.63;;;;;;;2.45;90.00;100284.91;5115794;23;20235;-80
2021/10/28 05:10:18;;;;;;;27.47;20.00;;;;;;;2.48;89.70;100293.38;5125811;22;20232;-79
2021/10/28 05:13:36;;;;;;;35.40;19.60;;;;;;;2.54;89.99;100294.59;5212925;22;20264;-80
2021/10/28 05:17:12;;;;;;;29.87;18.73;;;;;;;2.57;90.55;100296.91;5133964;22;20236;-80
2021/10/28 05:20:22;;;;;;;42.77;18.83;;;;;;;2.42;90.24;100303.75;5079349;22;20227;-81
2021/10/28 05:23:23;;;;;;;35.77;19.20;;;;;;;2.40;89.92;100290.66;5080296;28;20182;-80
2021/10/28 05:26:32;;;;;;;39.40;19.43;;;;;;;2.28;89.77;100305.09;5120323;22;20206;-80
2021/10/28 05:29:49;;;;;;;34.03;20.80;;;;;;;2.32;89.79;100310.91;5067040;22;20296;-80
2021/10/28 05:33:18;;;;;;;25.97;18.90;;;;;;;2.16;90.71;100293.06;5070715;23;20217;-80
2021/10/28 05:36:10;;;;;;;27.33;20.37;;;;;;;2.32;90.53;100306.47;5045564;28;20229;-81
2021/10/28 05:39:46;;;;;;;31.97;21.33;;;;;;;2.38;90.58;100305.03;5102521;22;20250;-80
2021/10/28 05:43:06;;;;;;;39.80;21.80;;;;;;;2.40;90.72;100305.69;5112503;22;20219;-81
2021/10/28 05:46:05;;;;;;;36.93;22.33;;;;;;;2.45;91.18;100303.44;5087847;22;20224;-80
2021/10/28 05:48:54;;;;;;;33.13;22.23;;;;;;;2.56;91.18;100309.34;5170031;22;20227;-80
2021/10/28 05:51:26;;;;;;;38.90;23.57;;;;;;;2.67;91.33;100310.91;5107555;22;20212;-80
2021/10/28 06:01:54;;;;;;;50.40;23.43;;;;;;;2.93;91.00;100329.47;5067929;22;20293;-80
2021/10/28 06:05:12;;;;;;;38.10;23.20;;;;;;;3.01;91.13;100335.66;5042737;28;20224;-80
2021/10/28 06:08:03;;;;;;;61.03;24.73;;;;;;;3.10;90.93;100334.75;5076190;23;20232;-80
2021/10/28 06:11:25;;;;;;;47.17;23.90;;;;;;;3.21;91.12;100344.25;5094304;22;20235;-80
2021/10/28 06:14:27;;;;;;;101.83;25.23;;;;;;;3.05;90.91;100321.13;5088910;22;20315;-80
2021/10/28 06:17:15;;;;;;;42.83;20.90;;;;;;;3.24;90.78;100337.81;5089969;23;20280;-80
2021/10/28 06:20:20;;;;;;;74.27;22.83;;;;;;;3.24;90.49;100341.28;5075687;28;20225;-80
2021/10/28 06:23:19;;;;;;;42.67;21.40;;;;;;;3.33;90.23;100334.22;5081747;23;20241;-80
2021/10/28 06:26:15;;;;;;;70.03;21.03;;;;;;;3.38;90.02;100337.25;5081525;23;20259;-79
2021/10/28 06:29:03;;;;;;;56.00;22.63;;;;;;;3.32;89.18;100316.66;5072034;23;20257;-80
2021/10/28 06:31:38;;;;;;;60.00;20.80;;;;;;;3.51;89.49;100343.78;5068681;22;20571;31
2021/10/28 06:34:24;;;;;;;62.57;22.53;;;;;;;3.17;89.21;100332.31;4993661;23;20214;-79
2021/10/28 06:37:31;;;;;;;58.60;24.23;;;;;;;3.44;89.23;100339.28;5083176;22;20224;-80
2021/10/28 06:40:11;;;;;;;56.80;23.73;;;;;;;3.45;90.23;100340.94;5115523;28;20220;-80
2021/10/28 06:42:52;;;;;;;42.33;23.57;;;;;;;3.44;90.36;100318.91;5127095;22;20296;-80
2021/10/28 06:45:43;;;;;;;75.57;25.13;;;;;;;3.58;89.79;100344.00;5118350;22;20232;-80
2021/10/28 06:48:19;;;;;;;45.80;26.70;;;;;;;3.77;91.39;100337.63;5095512;28;20559;-80
2021/10/28 06:51:06;;;;;;;83.07;30.03;;;;;;;3.96;89.97;100346.16;5103342;22;20223;-80
2021/10/28 06:54:00;;;;;;;72.05;29.02;;;;;;;4.34;90.30;100350.06;4751619;22;16270503;-80
2021/10/28 07:04:47;;;;;;;114.50;32.97;;;;;;;5.10;88.79;100349.00;5122654;22;20524;-79
2021/10/28 07:07:43;;;;;;;53.50;28.83;;;;;;;5.24;89.41;100358.94;5117768;22;20216;-80
2021/10/28 07:13:24;;;;;;;78.57;33.27;;;;;;;5.57;88.39;100344.63;5101334;22;20271;-80
2021/10/28 07:16:12;;;;;;;53.70;31.23;;;;;;;5.88;89.72;100352.69;5122406;22;20234;-80
2021/10/28 07:19:13;;;;;;;146.87;34.43;;;;;;;6.06;88.89;100350.66;5052168;23;20233;-80
2021/10/28 07:24:55;;;;;;;73.37;33.07;;;;;;;6.29;87.78;100350.69;5127451;22;20238;-80
2021/10/28 07:27:37;;;;;;;56.27;32.43;;;;;;;6.54;88.45;100341.53;5127451;22;20236;-80
2021/10/28 07:30:33;;;;;;;43.27;27.67;;;;;;;6.63;86.80;100350.31;5101010;22;20277;-80
2021/10/28 08:19:48;;;;;;;24.57;21.97;;;;;;;8.06;81.03;100309.25;5078707;23;20228;-80
2021/10/28 08:23:14;;;;;;;28.20;25.20;;;;;;;7.96;81.22;100333.56;5084584;22;20256;-80
2021/10/28 08:29:04;;;;;;;25.63;22.93;;;;;;;7.93;82.27;100317.94;5107388;22;20227;-80
2021/10/28 08:31:36;;;;;;;25.97;23.27;;;;;;;7.88;81.96;100309.66;5100422;23;20250;-80
2021/10/28 08:34:35;;;;;;;28.13;23.87;;;;;;;7.86;82.89;100315.16;5103577;23;20224;-79
2021/10/28 08:37:13;;;;;;;26.67;23.77;;;;;;;7.90;83.05;100303.09;5112770;28;20262;-80
2021/10/28 08:40:26;;;;;;;27.83;24.43;;;;;;;8.06;83.65;100304.75;5106117;28;20196;-82
2021/10/28 08:43:14;;;;;;;27.20;24.37;;;;;;;8.02;83.47;100286.63;5084255;28;20157;-80
2021/10/28 08:45:47;;;;;;;28.43;25.47;;;;;;;8.21;83.54;100302.84;5094839;22;20248;-80
2021/10/28 08:48:27;;;;;;;29.03;25.93;;;;;;;8.24;83.94;100293.66;5073851;28;20218;-80
2021/10/28 08:57:38;;;;;;;28.00;25.00;;;;;;;8.59;83.15;100284.81;5092134;28;20199;-80
2021/10/28 09:28:49;;;;;;;19.07;17.07;;;;;;;11.28;71.83;100270.94;5045264;22;20256;-78
2021/10/28 09:31:55;;;;;;;22.30;17.73;;;;;;;11.48;71.17;100267.19;4998243;28;20227;-78
2021/10/28 09:47:03;;;;;;;18.77;16.37;;;;;;;12.54;65.40;100253.31;5117414;28;20204;-78
2021/10/28 09:50:09;;;;;;;18.57;16.67;;;;;;;12.68;64.37;100244.13;5114909;28;20263;-79
2021/10/28 09:53:14;;;;;;;19.03;16.93;;;;;;;12.70;63.57;100244.72;5122196;23;20215;-80
2021/10/28 09:59:23;;;;;;;17.93;16.03;;;;;;;12.79;62.67;100228.09;5107797;22;20220;-78
2021/10/28 10:02:31;;;;;;;18.37;16.33;;;;;;;12.91;62.29;100232.78;5116722;28;20214;-79
2021/10/28 10:05:22;;;;;;;18.53;16.17;;;;;;;13.10;61.75;100237.16;5126372;22;20354;-77
2021/10/28 10:08:17;;;;;;;18.53;15.97;;;;;;;13.20;61.06;100235.59;5095054;23;20231;-78
2021/10/28 10:11:06;;;;;;;16.93;15.30;;;;;;;13.40;60.59;100237.28;5095997;28;20227;-78
2021/10/28 10:13:47;;;;;;;18.43;16.13;;;;;;;13.38;60.00;100234.00;5096529;28;20212;-78
2021/10/28 10:16:16;;;;;;;16.67;15.07;;;;;;;13.55;59.69;100226.97;5095660;28;20211;-79
2021/10/28 10:18:49;;;;;;;19.37;15.53;;;;;;;13.56;59.10;100223.25;5123756;22;20224;-78
2021/10/28 10:21:30;;;;;;;16.97;15.13;;;;;;;13.75;58.99;100227.59;5103866;23;20230;-78
2021/10/28 12:49:28;;;;;;;12.40;11.20;;;;;;;15.89;44.31;100094.00;5102647;22;20269;-79
2021/10/28 13:48:40;;;;;;;12.40;11.20;;;;;;;15.48;43.96;100051.88;5111159;22;20237;-80
2021/10/28 14:36:49;;;;;;;14.27;12.77;;;;;;;14.66;46.64;100038.59;5052102;28;20248;-84
2021/10/28 15:00:47;;;;;;;15.93;14.30;;;;;;;13.95;49.19;100034.19;5110309;22;20200;-77
2021/10/28 15:28:56;;;;;;;20.43;18.40;;;;;;;12.78;52.45;100032.06;5075100;22;20293;-79
2021/10/28 16:22:20;;;;;;;22.90;20.50;;;;;;;11.32;57.68;99998.56;5019744;28;20222;-81
2021/10/28 16:24:49;;;;;;;22.50;20.30;;;;;;;11.29;58.28;100015.09;5017699;28;20216;-81
2021/10/28 16:27:16;;;;;;;25.40;22.93;;;;;;;11.26;58.58;100010.13;5034544;28;20230;-79
2021/10/28 16:29:46;;;;;;;25.77;23.03;;;;;;;11.15;58.81;100006.25;5073268;23;20258;-78
2021/10/28 16:32:14;;;;;;;23.87;21.47;;;;;;;11.16;58.91;100015.13;5088071;22;20210;-80
2021/10/28 16:34:44;;;;;;;24.37;22.00;;;;;;;10.93;59.50;100002.25;5077734;23;20206;-79
2021/10/28 16:37:18;;;;;;;23.93;21.53;;;;;;;10.94;59.89;100014.63;5019170;28;20199;-80
2021/10/28 16:39:47;;;;;;;27.87;24.93;;;;;;;10.80;59.84;100007.66;5019466;28;20302;-79
2021/10/28 16:42:39;;;;;;;24.93;22.33;;;;;;;10.70;59.96;100002.75;5067504;23;20256;-80
2021/10/28 16:45:10;;;;;;;25.00;22.57;;;;;;;10.59;60.67;100014.13;5079083;28;20212;-79
2021/10/28 16:47:59;;;;;;;24.07;21.67;;;;;;;10.65;60.87;100020.50;5079310;28;20178;-79
2021/10/28 16:50:38;;;;;;;25.60;22.97;;;;;;;10.67;60.85;100024.63;5078288;28;20221;-80
2021/10/28 16:53:07;;;;;;;24.90;22.27;;;;;;;10.57;61.28;100026.91;5084578;23;20209;-79
2021/10/28 16:56:16;;;;;;;26.00;23.30;;;;;;;10.52;61.25;100027.53;5074278;28;20306;-78
2021/10/28 16:59:08;;;;;;;25.33;22.63;;;;;;;10.43;61.50;100025.28;5090006;22;20225;-78
2021/10/28 17:01:40;;;;;;;27.70;24.90;;;;;;;10.27;62.19;100020.34;5083457;23;20225;-78
2021/10/28 17:04:26;;;;;;;26.90;24.30;;;;;;;10.30;61.71;100033.34;5089161;22;20229;-78
2021/10/28 17:06:56;;;;;;;25.30;22.70;;;;;;;10.26;62.06;100027.59;5060085;28;20228;-78
2021/10/28 17:09:36;;;;;;;25.70;23.00;;;;;;;10.13;62.30;100025.69;5095810;23;20246;-78
2021/10/28 17:12:11;;;;;;;24.33;21.93;;;;;;;10.05;62.38;100020.56;5197975;22;20232;-78
2021/10/28 17:14:39;;;;;;;26.93;24.13;;;;;;;10.08;62.43;100025.50;5103551;22;20250;-77
2021/10/28 17:17:11;;;;;;;24.57;22.17;;;;;;;9.82;62.94;100009.44;5060214;23;20256;-78
2021/10/28 17:20:07;;;;;;;24.87;22.33;;;;;;;9.87;63.09;100027.56;5118054;23;20235;-78
2021/10/28 17:22:41;;;;;;;26.03;23.27;;;;;;;9.84;63.08;100028.81;5117116;28;20238;-79
2021/10/28 17:25:17;;;;;;;24.53;22.03;;;;;;;9.84;62.92;100027.97;5122957;23;20258;-79
2021/10/28 17:27:58;;;;;;;25.73;23.23;;;;;;;9.79;63.03;100028.59;5123082;22;20326;-78
2021/10/28 17:30:29;;;;;;;25.70;22.70;;;;;;;9.71;63.52;100018.06;5098464;28;20231;-78
2021/10/28 17:33:00;;;;;;;25.13;22.63;;;;;;;9.65;63.63;100016.22;5095476;28;20235;-79
2021/10/28 17:35:29;;;;;;;26.37;23.63;;;;;;;9.70;63.57;100019.91;5114158;28;20231;-78
2021/10/28 17:38:08;;;;;;;25.73;23.03;;;;;;;9.71;63.27;100026.94;5114602;28;20180;-78
2021/10/28 17:40:55;;;;;;;25.97;23.17;;;;;;;9.55;63.90;100024.66;5119652;23;20224;-79
2021/10/28 17:43:46;;;;;;;25.50;22.83;;;;;;;9.41;64.37;100024.81;5094489;28;20216;-78
2021/10/28 17:46:19;;;;;;;26.33;23.47;;;;;;;9.32;64.58;100028.72;5091785;28;20233;-77
2021/10/28 17:48:49;;;;;;;26.03;23.43;;;;;;;9.29;64.94;100029.94;5113165;28;20208;-79
2021/10/28 17:51:18;;;;;;;27.87;25.00;;;;;;;9.38;64.35;100026.03;5110250;28;20467;-78
2021/10/28 17:53:47;;;;;;;25.27;22.60;;;;;;;9.43;64.26;100039.63;5111527;28;20310;-79
2021/10/28 17:56:16;;;;;;;25.80;23.03;;;;;;;9.47;63.93;100034.72;5113321;28;20227;-78
2021/10/28 17:58:44;;;;;;;25.67;23.07;;;;;;;9.31;64.10;100025.22;5112679;28;20227;-79
2021/10/28 18:01:15;;;;;;;25.27;22.77;;;;;;;9.24;64.68;100025.19;5094190;28;20202;-80
2021/10/28 18:03:49;;;;;;;25.83;23.20;;;;;;;9.20;64.44;100010.56;5112625;28;20253;-78
2021/10/28 18:06:44;;;;;;;25.83;23.13;;;;;;;9.24;64.91;100033.19;5112394;28;20187;-79
2021/10/28 18:09:44;;;;;;;24.93;22.33;;;;;;;9.18;64.61;100019.84;5101987;28;20234;-79
2021/10/28 18:12:16;;;;;;;26.40;23.70;;;;;;;9.05;65.34;100023.25;5094708;28;20228;-78
2021/10/28 18:14:45;;;;;;;26.40;23.47;;;;;;;9.07;65.32;100018.56;5094523;28;20252;-78
2021/10/28 18:17:13;;;;;;;25.53;23.03;;;;;;;9.08;65.17;100017.53;5086796;22;20213;-81
2021/10/28 18:19:42;;;;;;;26.00;23.30;;;;;;;9.00;65.42;100022.25;5075435;28;20266;-79
2021/10/28 18:22:16;;;;;;;26.80;23.93;;;;;;;9.02;65.54;100029.03;5092425;28;20203;-79
2021/10/28 18:24:46;;;;;;;25.93;23.20;;;;;;;8.95;65.53;100017.50;5104629;22;20250;-79
2021/10/28 18:27:18;;;;;;;25.97;23.37;;;;;;;8.86;66.41;100024.03;5183377;23;20654;-80
2021/10/28 18:29:46;;;;;;;27.57;24.73;;;;;;;8.97;65.75;100022.63;5114057;28;20208;-78
2021/10/28 18:32:15;;;;;;;25.83;23.33;;;;;;;8.97;65.75;100012.75;5118829;22;20254;-79
2021/10/28 18:34:46;;;;;;;25.80;23.20;;;;;;;8.98;65.17;100003.72;5108710;28;20252;-79
2021/10/28 18:37:23;;;;;;;27.63;24.80;;;;;;;8.95;65.85;100014.00;5111884;28;20239;-77
2021/10/28 18:39:55;;;;;;;27.13;23.70;;;;;;;8.93;65.87;100010.69;5116383;22;20295;-77
2021/10/28 18:42:22;;;;;;;26.73;23.93;;;;;;;8.81;66.33;99999.75;5091992;28;20222;-79
2021/10/28 18:45:26;;;;;;;26.27;23.57;;;;;;;8.90;65.99;100011.09;5105136;28;20219;-78
2021/10/28 18:48:33;;;;;;;27.07;24.17;;;;;;;8.78;66.45;100003.63;5137487;22;20285;-78
2021/10/28 18:51:06;;;;;;;26.67;23.77;;;;;;;8.74;66.28;100017.59;5105044;22;20281;-80
2021/10/28 18:54:18;;;;;;;26.73;23.97;;;;;;;8.51;67.34;100017.06;5122882;22;20243;-81
2021/10/28 18:57:52;;;;;;;28.93;25.90;;;;;;;8.26;67.97;100001.47;5116875;28;20232;-79
2021/10/28 19:00:36;;;;;;;27.33;24.53;;;;;;;8.30;68.03;100009.97;5125948;22;20173;-80
2021/10/28 19:03:31;;;;;;;28.20;25.20;;;;;;;8.23;68.33;100006.38;5094352;28;20240;-78
2021/10/28 19:06:25;;;;;;;28.07;25.07;;;;;;;8.07;68.81;99986.13;5116247;22;20224;-81
2021/10/28 19:09:22;;;;;;;28.80;25.80;;;;;;;8.15;69.22;100004.69;5117069;28;20224;-79
2021/10/28 19:12:23;;;;;;;27.20;24.40;;;;;;;8.16;69.35;99990.34;5123924;22;20230;-79
2021/10/28 19:15:24;;;;;;;27.80;25.00;;;;;;;8.16;68.88;99994.84;5123965;22;20201;-79
2021/10/28 19:18:36;;;;;;;27.73;24.93;;;;;;;8.12;69.40;99993.59;5123770;22;20242;-79
2021/10/28 19:22:02;;;;;;;28.23;25.33;;;;;;;8.11;69.28;99990.09;5032163;28;20215;-80
2021/10/28 19:25:06;;;;;;;27.23;24.13;;;;;;;8.22;69.00;99991.38;5117619;23;20217;-80
2021/10/28 19:28:05;;;;;;;28.60;25.43;;;;;;;8.44;68.13;99986.84;5106922;22;20233;-78
2021/10/28 19:31:08;;;;;;;26.93;24.07;;;;;;;8.45;67.92;99983.94;5103145;22;20217;-79
2021/10/28 19:34:00;;;;;;;26.63;23.97;;;;;;;8.32;68.60;99983.88;5103475;22;20248;-78
2021/10/28 19:46:20;;;;;;;26.50;23.70;;;;;;;8.48;68.47;99967.56;5077222;23;20234;-81
2021/10/28 19:48:22;;;;;;;25.33;22.63;;;;;;;8.80;67.45;99974.88;5063787;28;20250;-80
2021/10/28 19:50:52;;;;;;;26.70;23.97;;;;;;;9.06;67.23;99975.97;5093898;28;20289;-80
2021/10/28 19:53:58;;;;;;;26.97;23.57;;;;;;;9.20;66.59;99972.31;5105191;22;20252;-84
2021/10/28 19:57:34;;;;;;;26.47;23.17;;;;;;;9.40;65.79;99962.50;5022774;23;20253;-81
2021/10/28 20:00:47;;;;;;;24.83;22.17;;;;;;;9.36;66.08;99966.59;5140719;22;20228;-80
2021/10/28 20:03:42;;;;;;;25.23;22.47;;;;;;;9.47;65.16;99968.66;5076621;28;20195;-79
2021/10/28 20:06:44;;;;;;;25.37;22.73;;;;;;;9.46;65.14;99966.22;5173174;22;20290;-81
2021/10/28 20:22:04;;;;;;;26.90;24.17;;;;;;;9.47;65.78;99973.22;5097643;28;20214;-81
2021/10/28 20:24:58;;;;;;;25.03;22.63;;;;;;;9.24;66.76;99955.66;5097132;22;20227;-80
2021/10/28 20:27:26;;;;;;;26.93;24.13;;;;;;;9.44;66.16;99969.06;5067012;23;20241;-81
2021/10/28 20:29:56;;;;;;;27.27;24.47;;;;;;;9.40;66.41;99970.50;5078760;22;20229;-83
2021/10/28 20:32:38;;;;;;;26.83;23.93;;;;;;;9.45;66.63;99969.91;5083672;23;20234;-80
2021/10/28 20:35:29;;;;;;;26.77;23.87;;;;;;;9.34;66.68;99967.81;5049632;23;20231;-79
2021/10/28 20:38:19;;;;;;;27.53;24.17;;;;;;;9.41;66.88;99966.81;5034865;28;20220;-81
2021/10/28 20:41:22;;;;;;;27.80;24.77;;;;;;;9.41;66.93;99974.00;5033998;28;20210;-80
2021/10/28 20:43:57;;;;;;;28.00;25.30;;;;;;;9.36;67.11;99968.44;5075804;23;20227;-80
2021/10/28 20:46:56;;;;;;;27.20;24.40;;;;;;;9.46;66.88;99971.56;5277894;22;20211;-80
2021/10/28 20:50:19;;;;;;;28.13;24.87;;;;;;;9.30;67.26;99959.38;5093835;23;20231;-81
2021/10/28 20:56:38;;;;;;;28.17;25.27;;;;;;;9.26;67.98;99958.16;5056604;23;20248;-81
2021/10/28 20:59:34;;;;;;;28.07;24.83;;;;;;;9.31;67.70;99952.19;5076902;28;20190;-80
2021/10/28 21:02:09;;;;;;;28.57;25.57;;;;;;;9.24;68.18;99953.00;5083351;23;20217;-82
2021/10/28 21:05:13;;;;;;;28.87;25.77;;;;;;;9.24;67.90;99955.66;5169408;23;20232;-77
2021/10/28 21:08:05;;;;;;;30.10;26.83;;;;;;;9.22;67.98;99951.56;5018190;28;20218;-83
2021/10/28 21:10:47;;;;;;;30.47;27.17;;;;;;;8.97;68.02;99921.91;5049502;22;20186;-79
2021/10/28 21:13:45;;;;;;;30.73;27.60;;;;;;;9.29;67.63;99941.69;5097834;23;20296;-81
2021/10/28 21:16:58;;;;;;;29.27;26.30;;;;;;;9.36;67.94;99942.53;5061586;22;20228;-81
2021/10/28 21:20:02;;;;;;;30.53;27.27;;;;;;;9.21;68.35;99941.88;5194447;23;20229;-80
2021/10/28 21:22:49;;;;;;;32.00;27.07;;;;;;;9.16;68.36;99942.50;5104438;22;20229;-80
2021/10/28 21:25:52;;;;;;;30.23;26.97;;;;;;;9.16;68.59;99939.81;5092577;22;20660;-82
2021/10/28 21:28:54;;;;;;;30.43;27.13;;;;;;;9.15;68.36;99940.84;5082653;22;20212;-81
2021/10/28 21:31:29;;;;;;;29.13;26.13;;;;;;;9.17;68.42;99949.50;5086841;23;20209;-80
2021/10/28 21:34:15;;;;;;;31.50;27.33;;;;;;;9.12;68.68;99940.44;5227947;23;20260;-80
2021/10/28 21:37:10;;;;;;;31.83;28.43;;;;;;;9.04;69.28;99932.63;5192547;22;20276;-81
2021/10/28 21:39:45;;;;;;;30.67;27.37;;;;;;;9.18;68.42;99936.97;5188707;22;20280;-80
2021/10/28 21:42:59;;;;;;;29.70;26.53;;;;;;;9.21;68.35;99931.19;5098119;28;20213;-81
2021/10/28 21:45:39;;;;;;;30.07;26.80;;;;;;;9.20;68.90;99930.38;5098583;28;20259;-82
2021/10/28 21:48:12;;;;;;;30.53;27.30;;;;;;;9.12;68.66;99913.69;5098345;28;20293;-81
2021/10/28 21:50:43;;;;;;;30.33;27.13;;;;;;;9.05;68.91;99926.25;5096181;28;20208;-81
2021/10/28 21:53:42;;;;;;;30.07;26.83;;;;;;;9.13;68.84;99939.41;5073734;23;20213;-82
2021/10/28 22:00:18;;;;;;;30.07;26.93;;;;;;;9.12;68.73;99927.91;5101675;28;20235;-80
2021/10/28 22:26:30;;;;;;;26.57;23.77;;;;;;;9.38;66.48;99915.59;5103072;28;20212;-80
2021/10/28 22:29:19;;;;;;;26.50;23.70;;;;;;;9.41;66.60;99910.66;5116765;28;20231;-80
2021/10/28 22:32:06;;;;;;;26.20;23.50;;;;;;;9.40;66.38;99908.19;5130867;22;20222;-80
2021/10/28 22:34:36;;;;;;;27.33;24.43;;;;;;;9.49;65.96;99906.94;5123018;22;20252;-80
2021/10/28 22:37:39;;;;;;;24.93;22.33;;;;;;;9.45;66.15;99906.53;5112664;22;20244;-81
2021/10/28 22:40:32;;;;;;;26.27;23.47;;;;;;;9.45;66.01;99903.03;5069967;28;20248;-81
2021/10/28 22:43:22;;;;;;;26.47;23.53;;;;;;;9.47;66.33;99907.16;5077512;23;20234;-82
2021/10/28 22:45:50;;;;;;;25.57;22.87;;;;;;;9.68;65.61;99901.59;5116844;22;20236;-80
2021/10/28 22:48:25;;;;;;;28.20;24.07;;;;;;;9.59;65.28;99897.50;5114594;28;20219;-81
2021/10/28 22:51:24;;;;;;;25.73;22.87;;;;;;;9.65;65.14;99888.66;4948423;22;4382146;-80
2021/10/28 22:54:08;;;;;;;26.43;23.40;;;;;;;9.75;64.86;99890.06;5096359;22;20237;-82
2021/10/28 22:57:11;;;;;;;26.80;23.17;;;;;;;9.68;64.83;99893.56;5058390;28;20305;-81
2021/10/28 22:59:46;;;;;;;25.70;23.00;;;;;;;9.74;64.73;99889.25;5052449;28;20308;-80